createdAt,value
2018-02-20T08:05:50.587Z,30.60
2018-02-20T08:11:29.545Z,31.30
2018-02-20T08:17:09.774Z,31.20
2018-02-20T08:25:41.903Z,31.50
2018-02-20T08:35:04.987Z,31.60
2018-02-20T08:37:34.559Z,31.00
2018-02-20T08:40:04.293Z,30.90
2018-02-20T08:42:32.700Z,31.00
2018-02-20T08:45:00.960Z,31.60
2018-02-20T08:47:28.999Z,31.20
2018-02-20T08:49:57.284Z,30.90
2018-02-20T08:52:25.830Z,31.00
2018-02-20T08:54:54.533Z,30.80
2018-02-20T08:57:22.471Z,30.60
2018-02-20T08:59:50.582Z,30.60
2018-02-20T09:02:18.900Z,30.70
2018-02-20T09:04:52.500Z,30.90
2018-02-20T09:07:20.699Z,30.90
2018-02-20T09:09:49.152Z,30.80
2018-02-20T09:12:17.615Z,30.60
2018-02-20T09:14:46.129Z,30.70
2018-02-20T09:17:14.856Z,30.90
2018-02-20T09:19:42.995Z,31.00
2018-02-20T09:22:11.414Z,31.00
2018-02-20T09:24:40.006Z,31.00
2018-02-20T09:27:09.095Z,31.20
2018-02-20T09:29:37.457Z,31.20
2018-02-20T09:32:05.983Z,30.90
2018-02-20T09:34:34.766Z,30.80
2018-02-20T09:37:02.914Z,30.70
2018-02-20T09:39:32.435Z,30.50
2018-02-20T09:42:01.671Z,31.40
2018-02-20T09:44:30.156Z,31.30
2018-02-20T09:46:58.624Z,31.10
2018-02-20T09:49:26.915Z,30.20
2018-02-20T09:51:54.794Z,30.30
2018-02-20T09:54:22.875Z,30.60
2018-02-20T09:56:51.674Z,31.20
2018-02-20T09:59:19.634Z,30.80
2018-02-20T10:01:48.474Z,31.00
2018-02-20T10:04:16.766Z,31.00
2018-02-20T10:06:53.234Z,30.60
2018-02-20T10:09:21.543Z,30.70
2018-02-20T10:11:52.303Z,30.50
2018-02-20T10:14:20.348Z,30.40
2018-02-20T10:16:48.975Z,31.10
2018-02-20T10:19:16.877Z,31.10
2018-02-20T10:21:44.958Z,31.00
2018-02-20T10:24:13.116Z,30.90
2018-02-20T10:26:41.313Z,30.60
2018-02-20T10:29:09.538Z,31.40
2018-02-20T10:31:37.624Z,30.80
2018-02-20T10:34:06.266Z,31.00
2018-02-20T10:36:35.004Z,30.50
2018-02-20T10:39:03.320Z,29.60
2018-02-20T10:41:31.559Z,30.60
2018-02-20T10:44:00.632Z,30.20
2018-02-20T10:46:29.293Z,30.20
2018-02-20T10:48:57.395Z,30.00
2018-02-20T10:51:25.432Z,30.60
2018-02-20T10:53:53.531Z,30.40
2018-02-20T10:56:21.612Z,30.50
2018-02-20T10:58:50.654Z,29.70
2018-02-20T11:01:19.630Z,29.60
2018-02-20T11:03:48.019Z,29.80
2018-02-20T11:58:23.243Z,30.00
2018-02-20T12:00:51.948Z,30.20
2018-02-20T12:03:20.494Z,30.90
2018-02-20T12:05:48.846Z,31.60
2018-02-20T12:08:17.026Z,30.20
2018-02-20T12:10:54.619Z,30.80
2018-02-20T12:13:23.114Z,30.80
2018-02-20T12:16:02.971Z,28.70
2018-02-20T12:18:31.459Z,28.70
2018-02-20T12:21:00.375Z,29.40
2018-02-20T12:23:28.676Z,29.40
2018-02-20T12:25:57.801Z,29.70
2018-02-20T12:28:27.149Z,29.90
2018-02-20T12:30:55.820Z,29.90
2018-02-20T12:33:24.262Z,29.00
2018-02-20T12:35:53.405Z,29.30
2018-02-20T12:38:22.250Z,29.60
2018-02-20T12:40:51.339Z,28.90
2018-02-20T12:43:20.655Z,28.20
2018-02-20T12:45:49.140Z,28.10
2018-02-20T12:48:18.092Z,29.30
2018-02-20T12:50:46.424Z,29.20
2018-02-20T12:53:14.723Z,29.40
2018-02-20T12:55:42.654Z,30.30
2018-02-20T12:58:11.010Z,29.20
2018-02-20T13:00:39.945Z,28.80
2018-02-20T13:03:08.694Z,28.50
2018-02-20T13:05:37.350Z,27.80
2018-02-20T13:08:07.067Z,28.40
2018-02-20T13:10:35.627Z,28.30
2018-02-20T13:13:05.468Z,28.70
2018-02-20T13:15:34.247Z,29.40
2018-02-20T13:18:14.192Z,29.20
2018-02-20T13:20:42.885Z,30.00
2018-02-20T13:23:20.158Z,29.50
2018-02-20T13:25:48.969Z,29.40
2018-02-20T13:28:32.200Z,28.90
2018-02-20T13:31:01.225Z,29.40
2018-02-20T13:33:34.219Z,29.60
2018-02-20T13:36:02.632Z,30.60
2018-02-20T13:41:11.318Z,30.10
2018-02-20T13:43:40.050Z,30.00
2018-02-20T13:46:08.425Z,29.40
2018-02-20T13:48:43.070Z,29.20
2018-02-20T13:51:11.417Z,29.30
2018-02-20T13:53:40.707Z,29.60
2018-02-20T13:56:26.968Z,29.50
2018-02-20T13:58:56.828Z,28.00
2018-02-20T14:01:24.971Z,28.00
2018-02-20T14:03:53.268Z,29.40
2018-02-20T14:06:22.761Z,28.70
2018-02-20T14:08:52.522Z,28.60
2018-02-20T14:11:21.081Z,28.00
2018-02-20T14:13:49.494Z,28.70
2018-02-20T14:16:17.729Z,29.10
2018-02-20T14:18:46.298Z,29.20
2018-02-20T14:21:14.886Z,29.30
2018-02-20T14:23:48.110Z,28.80
2018-02-20T14:26:16.568Z,28.30
2018-02-20T14:28:44.669Z,28.30
2018-02-20T14:31:13.022Z,28.80
2018-02-20T14:33:41.574Z,29.20
2018-02-20T14:36:10.781Z,29.30
2018-02-20T14:38:39.140Z,29.30
2018-02-20T14:41:08.490Z,30.40
2018-02-20T14:43:37.081Z,29.80
2018-02-20T14:46:11.970Z,29.70
2018-02-20T14:48:40.285Z,28.70
2018-02-20T14:51:24.964Z,29.10
2018-02-20T14:53:53.273Z,29.40
2018-02-20T14:56:22.516Z,30.10
2018-02-20T14:58:51.392Z,30.10
2018-02-20T15:01:27.380Z,29.00
2018-02-20T15:03:55.818Z,27.60
2018-02-20T15:06:33.719Z,28.30
2018-02-20T15:09:03.292Z,29.10
2018-02-20T15:11:40.367Z,28.60
2018-02-20T15:14:09.052Z,29.00
2018-02-20T15:16:37.678Z,27.60
2018-02-20T15:19:06.019Z,28.20
2018-02-20T15:21:34.287Z,28.50
2018-02-20T15:24:04.390Z,27.90
2018-02-20T15:26:32.442Z,27.90
2018-02-20T15:29:00.910Z,29.10
2018-02-20T15:31:29.233Z,29.10
2018-02-20T15:33:57.754Z,29.10
2018-02-20T15:36:26.215Z,29.20
2018-02-20T15:38:54.687Z,28.30
2018-02-20T15:41:23.005Z,28.50
2018-02-20T15:43:52.248Z,29.10
2018-02-20T15:46:21.045Z,29.70
2018-02-20T15:48:49.204Z,30.00
2018-02-20T15:51:17.685Z,28.30
2018-02-20T15:53:46.859Z,28.10
2018-02-20T15:56:15.181Z,28.10
2018-02-20T15:58:43.682Z,28.70
2018-02-20T16:01:12.244Z,29.30
2018-02-20T16:03:46.962Z,28.40
2018-02-20T16:06:15.772Z,28.30
2018-02-20T16:08:44.830Z,29.20
2018-02-20T16:11:13.689Z,28.90
2018-02-20T16:13:45.296Z,29.70
2018-02-20T16:16:14.136Z,28.60
